From rushed Belgrade to procedular pearl of Adriatics - Tivat

Serbia’s enchanting landscapes are a true feast for the eyes and soul. Whichever region of Serbia you choose to visit, you are guaranteed to leave with lasting impressions of its magical scenery and unrivalled experiences.

Montenegro stands on the edge between the east and the west. Different civilizations crashing and colliding have left the most beautiful marks between the wrinkled mountainous face of this fascinating country. Roman floor mosaics, Illyrian gray castles, Venetian stony walls, vibrantly painted Orthodox monasteries, ornamental Catholic churches, modest and minimalistic mosque minarets and plane socialist style buildings will tell you about Montenegrin rich cultural history.

Airport GND TWR APP Metar
LYBE LYBE 210730Z 26007KT 9999 -RA BKN040 07/04 Q1026 NOSIG
LYKV LYKV 210730Z 00000KT 3000 BR FEW023 BKN030 05/05 Q1026 BECMG 6000 NSW
LYNI LYNI 210730Z VRB02KT 2800 BR BKN003 BKN027 06/06 Q1026 BECMG 4000 SCT005 BKN027
LYUZ No metar information
LYPG LYPG 210730Z 32007KT CAVOK 12/M01 Q1025 NOSIG
LYTV LYTV 210730Z 33003KT 280V040 CAVOK 14/M02 Q1024 NOSIG

Approved controllers

Coming soon!